Time;durP1;ratioP1;P1;durP2;ratioP2;P2;SDS_P1;SDS_P2;PMS_P1;PMS_P2;Temp;Humidity;BMP_temperature;BMP_pressure;BME280_temperature;BME280_humidity;BME280_pressure;Samples;Min_cycle;Max_cycle;Signal;HPM_P1;HPM_P2
2021/09/08 00:01:17;;;;;;;8.33;5.60;;;;;;;;;;5060016;28;20025;-82
2021/09/08 00:03:42;;;;;;;7.83;5.60;;;;;;;;;;5062193;28;20318;-82
2021/09/08 00:06:07;;;;;;;7.73;5.20;;;;;;;;;;5060324;28;20107;-84
2021/09/08 00:08:33;;;;;;;9.70;5.80;;;;;;;;;;5056952;28;20036;-84
2021/09/08 00:10:58;;;;;;;8.43;5.83;;;;;;;;;;5057848;28;20021;-85
2021/09/08 00:13:24;;;;;;;7.77;5.93;;;;;;;;;;5059150;28;20378;-82
2021/09/08 00:15:50;;;;;;;8.50;5.90;;;;;;;;;;5074343;28;20036;-82
2021/09/08 00:18:15;;;;;;;13.27;6.03;;;;;;;;;;5071429;28;20037;-80
2021/09/08 00:20:40;;;;;;;10.37;6.07;;;;;;;;;;5066932;28;20450;-83
2021/09/08 00:23:06;;;;;;;6.80;5.37;;;;;;;;;;5056477;28;20427;-82
2021/09/08 00:25:31;;;;;;;8.77;6.03;;;;;;;;;;5060344;28;20032;-84
2021/09/08 00:27:56;;;;;;;8.38;5.32;;;;;;;;;;5062265;28;20128;-82
2021/09/08 00:30:22;;;;;;;7.43;5.30;;;;;;;;;;5062401;28;20028;-84
2021/09/08 00:32:47;;;;;;;8.33;6.50;;;;;;;;;;5062810;28;20025;-85
2021/09/08 00:35:12;;;;;;;8.50;6.17;;;;;;;;;;5061979;28;20131;-83
2021/09/08 00:37:39;;;;;;;8.97;6.23;;;;;;;;;;5062361;28;20021;-82
2021/09/08 00:40:07;;;;;;;7.30;5.57;;;;;;;;;;5061271;28;20021;-85
2021/09/08 00:42:32;;;;;;;10.60;5.78;;;;;;;;;;5057596;28;20036;-81
2021/09/08 00:44:57;;;;;;;8.20;5.97;;;;;;;;;;5063455;28;20029;-82
2021/09/08 00:47:23;;;;;;;7.72;6.03;;;;;;;;;;5063683;28;20033;-82
2021/09/08 00:49:48;;;;;;;7.93;5.37;;;;;;;;;;5059711;28;20025;-83
2021/09/08 00:52:15;;;;;;;11.30;5.47;;;;;;;;;;5060688;28;20071;-83
2021/09/08 00:54:45;;;;;;;8.82;5.90;;;;;;;;;;5062559;28;20021;-82
2021/09/08 00:57:12;;;;;;;8.82;6.60;;;;;;;;;;5062439;28;20029;-83
2021/09/08 00:59:37;;;;;;;9.90;5.60;;;;;;;;;;5059974;28;20024;-83
2021/09/08 01:02:04;;;;;;;9.53;6.30;;;;;;;;;;5062173;28;20040;-85
2021/09/08 01:04:31;;;;;;;9.35;6.65;;;;;;;;;;5059629;28;20096;-84
2021/09/08 01:07:01;;;;;;;9.02;5.88;;;;;;;;;;5057114;28;20021;-84
2021/09/08 01:09:28;;;;;;;8.63;5.68;;;;;;;;;;5057211;28;20045;-82
2021/09/08 01:11:53;;;;;;;7.68;6.00;;;;;;;;;;5057501;28;20040;-84
2021/09/08 01:14:19;;;;;;;10.27;6.00;;;;;;;;;;5056380;28;20033;-83
2021/09/08 01:16:49;;;;;;;8.50;5.90;;;;;;;;;;5058034;28;20033;-83
2021/09/08 01:19:14;;;;;;;8.80;6.00;;;;;;;;;;5057450;28;20056;-85
2021/09/08 01:21:39;;;;;;;9.00;5.70;;;;;;;;;;5057623;28;20532;-85
2021/09/08 01:24:06;;;;;;;9.30;5.80;;;;;;;;;;5058307;28;20346;-85
2021/09/08 01:26:33;;;;;;;;;;;;;;;;;;5055944;28;20078;-83
2021/09/08 01:28:59;;;;;;;9.63;5.63;;;;;;;;;;5055300;28;19940;-84
2021/09/08 01:31:26;;;;;;;8.20;6.10;;;;;;;;;;5055160;28;20025;-85
2021/09/08 01:33:52;;;;;;;9.38;6.78;;;;;;;;;;5054763;28;20115;-84
2021/09/08 01:36:17;;;;;;;8.27;5.83;;;;;;;;;;5056043;28;20114;-85
2021/09/08 01:38:42;;;;;;;9.23;5.43;;;;;;;;;;5056480;28;20033;-83
2021/09/08 01:41:08;;;;;;;9.47;5.43;;;;;;;;;;5055090;28;20020;-82
2021/09/08 01:43:33;;;;;;;7.63;5.03;;;;;;;;;;5054774;28;20059;-83
2021/09/08 01:45:58;;;;;;;8.88;5.57;;;;;;;;;;5054936;28;20021;-85
2021/09/08 01:48:23;;;;;;;9.43;5.93;;;;;;;;;;5055083;28;20032;-85
2021/09/08 01:50:49;;;;;;;9.77;6.65;;;;;;;;;;5055883;28;20108;-82
2021/09/08 01:53:15;;;;;;;8.00;5.53;;;;;;;;;;5055939;28;20063;-84
2021/09/08 01:55:40;;;;;;;7.40;5.70;;;;;;;;;;5055782;28;20397;-83
2021/09/08 01:58:05;;;;;;;9.73;5.10;;;;;;;;;;5055914;28;20032;-83
2021/09/08 02:00:31;;;;;;;8.40;5.90;;;;;;;;;;5055918;28;20021;-85
2021/09/08 02:02:56;;;;;;;7.82;5.68;;;;;;;;;;5055298;28;20044;-83
2021/09/08 02:05:21;;;;;;;10.33;5.47;;;;;;;;;;5057015;28;20124;-82
2021/09/08 02:07:47;;;;;;;9.32;5.28;;;;;;;;;;5056011;28;20057;-84
2021/09/08 02:10:13;;;;;;;7.47;5.40;;;;;;;;;;5055931;28;20048;-83
2021/09/08 02:12:38;;;;;;;8.38;5.40;;;;;;;;;;5055980;28;20486;-84
2021/09/08 02:15:05;;;;;;;7.97;5.32;;;;;;;;;;5054724;28;20143;-82
2021/09/08 02:17:31;;;;;;;7.53;5.68;;;;;;;;;;5059666;28;20021;-82
2021/09/08 02:19:56;;;;;;;9.00;6.28;;;;;;;;;;5059248;28;20029;-83
2021/09/08 02:22:21;;;;;;;8.80;5.90;;;;;;;;;;5060304;28;20025;-83
2021/09/08 02:24:47;;;;;;;8.17;5.70;;;;;;;;;;5063694;28;20028;-83
2021/09/08 02:27:12;;;;;;;9.57;5.53;;;;;;;;;;5069658;28;20331;-85
2021/09/08 02:29:38;;;;;;;8.27;5.57;;;;;;;;;;5069966;28;20075;-84
2021/09/08 02:32:04;;;;;;;11.17;5.83;;;;;;;;;;5063359;28;20063;-82
2021/09/08 02:34:30;;;;;;;8.73;6.10;;;;;;;;;;5057019;28;20040;-82
2021/09/08 02:36:55;;;;;;;7.80;5.50;;;;;;;;;;5055270;28;20033;-83
2021/09/08 02:39:20;;;;;;;7.80;5.80;;;;;;;;;;5054467;28;20060;-85
2021/09/08 02:41:46;;;;;;;8.43;5.15;;;;;;;;;;5054474;28;20044;-83
2021/09/08 02:44:11;;;;;;;8.17;5.63;;;;;;;;;;5054050;28;20053;-82
2021/09/08 02:46:36;;;;;;;8.82;5.53;;;;;;;;;;5057404;28;20036;-84
2021/09/08 02:49:01;;;;;;;9.43;5.82;;;;;;;;;;5059099;28;20095;-85
2021/09/08 02:51:27;;;;;;;7.73;5.80;;;;;;;;;;5058606;28;20041;-84
2021/09/08 02:53:52;;;;;;;7.50;4.95;;;;;;;;;;5057654;28;20021;-84
2021/09/08 02:56:17;;;;;;;8.90;5.57;;;;;;;;;;5057948;28;20029;-84
2021/09/08 02:58:43;;;;;;;7.68;5.65;;;;;;;;;;5058903;28;20339;-84
2021/09/08 03:01:12;;;;;;;9.00;6.33;;;;;;;;;;5058314;28;20073;-82
2021/09/08 03:03:38;;;;;;;8.43;5.60;;;;;;;;;;5058116;28;20025;-82
2021/09/08 03:06:03;;;;;;;7.83;5.90;;;;;;;;;;5057836;28;20028;-84
2021/09/08 03:08:28;;;;;;;11.18;5.95;;;;;;;;;;5058612;28;20270;-83
2021/09/08 03:10:54;;;;;;;9.68;6.20;;;;;;;;;;5058759;28;20107;-83
2021/09/08 03:13:19;;;;;;;8.75;6.20;;;;;;;;;;5058883;28;20021;-85
2021/09/08 03:15:46;;;;;;;9.75;5.25;;;;;;;;;;5058502;28;20336;-85
2021/09/08 03:18:12;;;;;;;8.43;6.95;;;;;;;;;;5058570;28;20025;-84
2021/09/08 03:20:37;;;;;;;7.85;5.88;;;;;;;;;;5058767;28;20471;-83
2021/09/08 03:23:03;;;;;;;8.90;6.25;;;;;;;;;;5058066;28;20021;-84
2021/09/08 03:25:28;;;;;;;9.47;5.97;;;;;;;;;;5058643;28;20447;-85
2021/09/08 03:27:54;;;;;;;8.82;6.50;;;;;;;;;;5058675;28;20067;-84
2021/09/08 03:30:19;;;;;;;7.78;6.03;;;;;;;;;;5058860;28;20040;-84
2021/09/08 03:32:45;;;;;;;9.02;5.88;;;;;;;;;;5058513;28;20515;-84
2021/09/08 03:35:11;;;;;;;10.15;6.55;;;;;;;;;;5058383;28;20506;-81
2021/09/08 03:37:36;;;;;;;8.55;6.45;;;;;;;;;;5057593;28;20135;-82
2021/09/08 03:40:03;;;;;;;7.38;5.40;;;;;;;;;;5058453;28;20336;-84
2021/09/08 03:42:28;;;;;;;9.93;6.75;;;;;;;;;;5061208;28;20029;-81
2021/09/08 03:44:53;;;;;;;9.68;6.90;;;;;;;;;;5066665;28;20071;-82
2021/09/08 03:47:20;;;;;;;10.70;6.63;;;;;;;;;;5074536;28;20064;-84
2021/09/08 03:49:46;;;;;;;8.43;5.93;;;;;;;;;;5080279;28;20029;-82
2021/09/08 03:52:15;;;;;;;9.20;6.37;;;;;;;;;;5080672;28;20016;-82
2021/09/08 03:54:40;;;;;;;8.80;5.95;;;;;;;;;;5064267;28;20402;-82
2021/09/08 03:57:06;;;;;;;8.57;6.25;;;;;;;;;;5058817;28;20047;-83
2021/09/08 03:59:32;;;;;;;12.63;6.70;;;;;;;;;;5058054;28;20036;-82
2021/09/08 04:01:57;;;;;;;9.15;6.18;;;;;;;;;;5057528;28;20027;-82
2021/09/08 04:04:22;;;;;;;9.23;6.22;;;;;;;;;;5058331;28;20036;-81
2021/09/08 04:06:48;;;;;;;8.68;6.03;;;;;;;;;;5058035;28;20025;-83
2021/09/08 04:09:13;;;;;;;9.38;5.70;;;;;;;;;;5057688;28;20112;-82
2021/09/08 04:11:38;;;;;;;8.88;5.97;;;;;;;;;;5058115;28;20047;-84
2021/09/08 04:14:04;;;;;;;7.55;5.82;;;;;;;;;;5057478;28;20067;-83
2021/09/08 04:16:29;;;;;;;9.52;6.05;;;;;;;;;;5057485;28;20078;-82
2021/09/08 04:18:54;;;;;;;8.60;6.20;;;;;;;;;;5056132;28;20421;-83
2021/09/08 04:21:20;;;;;;;7.88;6.13;;;;;;;;;;5058256;28;20036;-83
2021/09/08 04:23:45;;;;;;;10.00;6.22;;;;;;;;;;5059527;28;20029;-83
2021/09/08 04:26:10;;;;;;;7.72;6.10;;;;;;;;;;5059694;28;20040;-82
2021/09/08 04:28:36;;;;;;;10.95;6.60;;;;;;;;;;5059197;28;20028;-82
2021/09/08 04:31:01;;;;;;;8.80;6.72;;;;;;;;;;5057392;28;20059;-84
2021/09/08 04:33:26;;;;;;;14.70;7.82;;;;;;;;;;5058835;28;20088;-84
2021/09/08 04:35:55;;;;;;;10.73;6.78;;;;;;;;;;5065001;28;20084;-82
2021/09/08 04:38:21;;;;;;;12.00;6.60;;;;;;;;;;5068331;28;20020;-85
2021/09/08 04:40:47;;;;;;;11.85;7.95;;;;;;;;;;5064316;28;20497;-85
2021/09/08 04:43:13;;;;;;;11.30;8.10;;;;;;;;;;5058801;28;20083;-84
2021/09/08 04:45:38;;;;;;;12.48;7.07;;;;;;;;;;5056782;28;20064;-83
2021/09/08 04:48:04;;;;;;;13.65;8.50;;;;;;;;;;5056618;28;20044;-86
2021/09/08 04:50:29;;;;;;;10.77;7.78;;;;;;;;;;5057212;28;20036;-83
2021/09/08 04:52:55;;;;;;;10.65;7.60;;;;;;;;;;5056858;28;20059;-83
2021/09/08 04:55:20;;;;;;;12.25;7.82;;;;;;;;;;5057243;28;20120;-85
2021/09/08 04:57:45;;;;;;;10.73;7.30;;;;;;;;;;5055485;28;20082;-84
2021/09/08 05:00:11;;;;;;;12.65;7.70;;;;;;;;;;5056479;28;20036;-83
2021/09/08 05:02:37;;;;;;;11.48;7.50;;;;;;;;;;5056466;28;20025;-84
2021/09/08 05:05:02;;;;;;;10.80;7.72;;;;;;;;;;5056582;28;20481;-83
2021/09/08 05:07:28;;;;;;;10.82;8.10;;;;;;;;;;5055538;28;20047;-83
2021/09/08 05:09:53;;;;;;;14.53;8.67;;;;;;;;;;5054740;28;20028;-83
2021/09/08 05:12:18;;;;;;;14.98;8.43;;;;;;;;;;5057708;28;20024;-85
2021/09/08 05:14:43;;;;;;;12.57;7.85;;;;;;;;;;5057108;28;20029;-84
2021/09/08 05:17:09;;;;;;;17.13;8.80;;;;;;;;;;5058412;28;20060;-84
2021/09/08 05:19:34;;;;;;;10.60;7.50;;;;;;;;;;5056931;28;20439;-83
2021/09/08 05:22:00;;;;;;;14.00;8.48;;;;;;;;;;5056331;28;20439;-84
2021/09/08 05:24:26;;;;;;;11.07;7.53;;;;;;;;;;5056004;28;20021;-84
2021/09/08 05:26:51;;;;;;;14.27;8.77;;;;;;;;;;5055841;28;20075;-83
2021/09/08 05:29:16;;;;;;;11.70;8.03;;;;;;;;;;5057495;28;20033;-86
2021/09/08 05:31:42;;;;;;;11.05;7.95;;;;;;;;;;5057881;28;20092;-85
2021/09/08 05:34:08;;;;;;;14.45;8.07;;;;;;;;;;5055739;28;20147;-84
2021/09/08 05:36:33;;;;;;;9.88;6.88;;;;;;;;;;5056617;28;20082;-84
2021/09/08 05:38:59;;;;;;;11.82;7.57;;;;;;;;;;5055694;28;20024;-84
2021/09/08 05:41:24;;;;;;;11.10;8.37;;;;;;;;;;5055755;28;20064;-84
2021/09/08 05:43:50;;;;;;;11.18;8.00;;;;;;;;;;5056270;28;20072;-85
2021/09/08 05:46:15;;;;;;;13.70;8.65;;;;;;;;;;5055039;28;20045;-83
2021/09/08 05:48:41;;;;;;;11.63;8.25;;;;;;;;;;5056232;28;20033;-84
2021/09/08 05:51:06;;;;;;;13.30;8.43;;;;;;;;;;5054856;28;20021;-84
2021/09/08 05:53:31;;;;;;;12.10;8.32;;;;;;;;;;5054644;28;20032;-85
2021/09/08 05:55:57;;;;;;;11.50;8.33;;;;;;;;;;5054692;28;20348;-85
2021/09/08 05:58:23;;;;;;;11.10;7.30;;;;;;;;;;5054786;28;20116;-85
2021/09/08 06:00:48;;;;;;;10.30;7.32;;;;;;;;;;5054862;28;20029;-83
2021/09/08 06:03:14;;;;;;;10.27;7.45;;;;;;;;;;5055250;28;20025;-81
2021/09/08 06:05:39;;;;;;;11.53;7.93;;;;;;;;;;5055266;28;20332;-81
2021/09/08 06:08:04;;;;;;;12.00;8.50;;;;;;;;;;5055355;28;20040;-81
2021/09/08 06:10:30;;;;;;;10.35;7.88;;;;;;;;;;5053781;28;20031;-80
2021/09/08 06:12:55;;;;;;;11.43;8.60;;;;;;;;;;5054743;28;20037;-80
2021/09/08 06:15:20;;;;;;;11.77;7.80;;;;;;;;;;5053715;28;20090;-80
2021/09/08 06:17:46;;;;;;;11.43;7.33;;;;;;;;;;5054716;28;20023;-80
2021/09/08 06:20:12;;;;;;;11.15;7.07;;;;;;;;;;5056440;28;20029;-79
2021/09/08 06:22:38;;;;;;;11.83;8.87;;;;;;;;;;5058254;28;20438;-78
2021/09/08 06:25:04;;;;;;;11.97;8.67;;;;;;;;;;5057358;28;20017;-80
2021/09/08 06:27:30;;;;;;;12.50;7.38;;;;;;;;;;5058531;28;20052;-79
2021/09/08 06:29:55;;;;;;;11.50;8.57;;;;;;;;;;5058433;28;20075;-80
2021/09/08 06:32:21;;;;;;;15.03;7.73;;;;;;;;;;5058486;28;20036;-79
2021/09/08 06:34:47;;;;;;;9.93;7.23;;;;;;;;;;5058710;28;20033;-81
2021/09/08 06:37:13;;;;;;;;;;;;;;;;;;5058907;28;20029;-79
2021/09/08 06:39:38;;;;;;;10.00;7.43;;;;;;;;;;5057192;28;19970;-82
2021/09/08 06:42:04;;;;;;;12.07;8.03;;;;;;;;;;5058513;28;20090;-81
2021/09/08 06:44:29;;;;;;;12.93;6.90;;;;;;;;;;5057092;28;20454;-82
2021/09/08 06:46:54;;;;;;;10.53;7.07;;;;;;;;;;5059162;28;20037;-80
2021/09/08 06:49:20;;;;;;;10.83;7.20;;;;;;;;;;5062467;28;20413;-78
2021/09/08 06:51:46;;;;;;;12.13;7.90;;;;;;;;;;5062076;28;20025;-80
2021/09/08 06:54:11;;;;;;;10.80;7.77;;;;;;;;;;5059325;28;20036;-79
2021/09/08 06:56:36;;;;;;;11.63;7.80;;;;;;;;;;5057880;28;20028;-79
2021/09/08 06:59:01;;;;;;;8.97;7.33;;;;;;;;;;5058028;28;20103;-83
2021/09/08 07:01:27;;;;;;;11.33;7.80;;;;;;;;;;5058052;28;20055;-82
2021/09/08 07:03:52;;;;;;;10.07;7.80;;;;;;;;;;5056926;28;20330;-83
2021/09/08 07:06:20;;;;;;;10.67;7.53;;;;;;;;;;5058296;28;20051;-84
2021/09/08 07:08:46;;;;;;;10.65;7.47;;;;;;;;;;5056958;28;20028;-82
2021/09/08 07:11:11;;;;;;;9.63;7.37;;;;;;;;;;5056959;28;20021;-82
2021/09/08 07:13:36;;;;;;;9.87;7.60;;;;;;;;;;5057780;28;20041;-83
2021/09/08 07:16:02;;;;;;;8.13;6.50;;;;;;;;;;5057140;28;20139;-82
2021/09/08 07:18:27;;;;;;;11.63;8.23;;;;;;;;;;5058254;28;20032;-83
2021/09/08 07:20:53;;;;;;;10.77;7.43;;;;;;;;;;5056870;28;20024;-83
2021/09/08 07:23:18;;;;;;;9.93;7.03;;;;;;;;;;5056694;28;20107;-82
2021/09/08 07:25:43;;;;;;;10.83;6.73;;;;;;;;;;5056647;28;20363;-84
2021/09/08 07:28:08;;;;;;;8.93;7.10;;;;;;;;;;5057679;28;20086;-82
2021/09/08 07:30:34;;;;;;;9.40;7.17;;;;;;;;;;5057385;28;20037;-82
2021/09/08 07:33:00;;;;;;;9.33;7.13;;;;;;;;;;5057845;28;20044;-84
2021/09/08 07:35:25;;;;;;;9.00;6.80;;;;;;;;;;5057861;28;20040;-82
2021/09/08 07:37:50;;;;;;;8.27;7.20;;;;;;;;;;5057813;28;20597;-82
2021/09/08 07:40:17;;;;;;;8.70;6.43;;;;;;;;;;5066544;28;20029;-81
2021/09/08 07:42:42;;;;;;;9.15;6.78;;;;;;;;;;5070241;28;20032;-82
2021/09/08 07:45:08;;;;;;;9.23;7.10;;;;;;;;;;5074061;28;20025;-82
2021/09/08 07:47:33;;;;;;;8.88;6.65;;;;;;;;;;5069075;28;20025;-81
2021/09/08 07:49:59;;;;;;;8.37;6.23;;;;;;;;;;5067955;28;20052;-82
2021/09/08 07:52:24;;;;;;;9.10;6.83;;;;;;;;;;5070032;28;20037;-83
2021/09/08 07:54:50;;;;;;;8.83;7.00;;;;;;;;;;5057368;28;20031;-83
2021/09/08 07:57:15;;;;;;;7.93;6.73;;;;;;;;;;5057389;28;20082;-82
2021/09/08 07:59:40;;;;;;;14.88;7.32;;;;;;;;;;5058063;28;20037;-82
2021/09/08 08:02:06;;;;;;;9.40;6.70;;;;;;;;;;5057778;28;20045;-82
2021/09/08 08:04:31;;;;;;;8.60;5.93;;;;;;;;;;5058099;28;20037;-83
2021/09/08 08:06:56;;;;;;;9.33;6.60;;;;;;;;;;5056032;28;20037;-82
2021/09/08 08:09:22;;;;;;;10.57;6.50;;;;;;;;;;5057456;28;20043;-82
2021/09/08 08:11:47;;;;;;;7.43;6.35;;;;;;;;;;5057101;28;20039;-82
2021/09/08 08:14:13;;;;;;;7.50;6.47;;;;;;;;;;5057181;28;20048;-82
2021/09/08 08:16:39;;;;;;;8.77;6.35;;;;;;;;;;5059820;28;20040;-82
2021/09/08 08:19:04;;;;;;;13.40;7.90;;;;;;;;;;5063128;28;20040;-82
2021/09/08 08:21:30;;;;;;;7.70;6.47;;;;;;;;;;5061196;28;20025;-82
2021/09/08 08:23:55;;;;;;;;;;;;;;;;;;5074872;28;20013;-82
2021/09/08 08:26:22;;;;;;;6.72;5.53;;;;;;;;;;5076102;28;19917;-83
2021/09/08 08:28:47;;;;;;;8.93;6.50;;;;;;;;;;5070831;28;20043;-85
2021/09/08 08:31:13;;;;;;;;;;;;;;;;;;5077353;28;20025;-85
2021/09/08 08:33:38;;;;;;;;;;;;;;;;;;5066388;28;20287;-85
2021/09/08 08:36:04;;;;;;;6.63;5.60;;;;;;;;;;5057001;28;20342;-87
2021/09/08 08:38:29;;;;;;;9.40;6.35;;;;;;;;;;5058623;28;20267;-86
2021/09/08 08:40:55;;;;;;;7.75;5.97;;;;;;;;;;5057576;28;20033;-85
2021/09/08 08:43:20;;;;;;;7.28;5.82;;;;;;;;;;5055736;28;20049;-82
2021/09/08 08:45:46;;;;;;;7.00;5.60;;;;;;;;;;5056549;28;20308;-83
2021/09/08 08:48:11;;;;;;;8.18;5.88;;;;;;;;;;5056046;28;20056;-84
2021/09/08 08:50:37;;;;;;;9.32;6.03;;;;;;;;;;5057369;28;20020;-87
2021/09/08 08:53:02;;;;;;;8.13;6.85;;;;;;;;;;5059346;28;20032;-84
2021/09/08 08:55:28;;;;;;;8.38;6.20;;;;;;;;;;5060031;28;20116;-85
2021/09/08 08:57:54;;;;;;;7.30;6.20;;;;;;;;;;5067174;28;20025;-84
2021/09/08 09:00:21;;;;;;;7.60;5.97;;;;;;;;;;5073422;28;20048;-85
2021/09/08 09:02:51;;;;;;;8.18;6.47;;;;;;;;;;5071118;28;20049;-85
2021/09/08 09:05:34;;;;;;;7.32;6.05;;;;;;;;;;5060849;28;20419;-85
2021/09/08 09:08:00;;;;;;;8.27;6.15;;;;;;;;;;5062984;28;20024;-87
2021/09/08 09:10:27;;;;;;;9.07;6.00;;;;;;;;;;5058900;28;20108;-83
2021/09/08 09:12:53;;;;;;;7.18;6.00;;;;;;;;;;5055935;28;20032;-85
2021/09/08 09:15:20;;;;;;;6.40;5.70;;;;;;;;;;5054530;28;20025;-82
2021/09/08 09:17:47;;;;;;;7.72;6.07;;;;;;;;;;5055948;28;20128;-84
2021/09/08 09:20:14;;;;;;;7.35;5.70;;;;;;;;;;5055456;28;20021;-84
2021/09/08 09:22:42;;;;;;;6.07;5.47;;;;;;;;;;5055585;28;20029;-86
2021/09/08 09:25:11;;;;;;;7.90;6.85;;;;;;;;;;5055006;28;20367;-86
2021/09/08 09:27:38;;;;;;;8.93;6.65;;;;;;;;;;5055024;28;20032;-84
2021/09/08 09:30:10;;;;;;;6.90;6.20;;;;;;;;;;5056204;28;20052;-86
2021/09/08 09:32:38;;;;;;;8.55;6.28;;;;;;;;;;5055301;28;20051;-85
2021/09/08 09:35:05;;;;;;;7.30;6.45;;;;;;;;;;5056181;28;20036;-85
2021/09/08 09:37:34;;;;;;;9.55;6.63;;;;;;;;;;5057087;28;20025;-87
2021/09/08 09:40:06;;;;;;;7.18;6.25;;;;;;;;;;5061097;28;20025;-85
2021/09/08 09:42:32;;;;;;;7.90;6.22;;;;;;;;;;5064549;28;20055;-85
2021/09/08 09:45:06;;;;;;;7.78;5.90;;;;;;;;;;5062682;28;20104;-85
2021/09/08 09:47:37;;;;;;;6.60;5.90;;;;;;;;;;5066388;28;20431;-85
2021/09/08 09:50:11;;;;;;;9.75;6.47;;;;;;;;;;5062284;28;20451;-85
2021/09/08 09:52:37;;;;;;;8.73;6.80;;;;;;;;;;5057164;28;20090;-84
2021/09/08 09:55:04;;;;;;;9.00;6.53;;;;;;;;;;5055216;28;20025;-86
2021/09/08 09:57:30;;;;;;;6.30;5.70;;;;;;;;;;5058540;28;20059;-83
2021/09/08 09:59:57;;;;;;;7.05;6.25;;;;;;;;;;5060039;28;20025;-83
2021/09/08 10:02:22;;;;;;;7.72;6.50;;;;;;;;;;5063122;28;20119;-84
2021/09/08 10:04:49;;;;;;;8.82;6.43;;;;;;;;;;5062693;28;20025;-88
2021/09/08 10:07:17;;;;;;;7.75;6.05;;;;;;;;;;5056322;28;20024;-87
2021/09/08 10:09:44;;;;;;;7.28;6.35;;;;;;;;;;5056053;28;20024;-87
2021/09/08 10:12:11;;;;;;;6.53;5.82;;;;;;;;;;5055986;28;20029;-84
2021/09/08 10:14:37;;;;;;;8.05;6.75;;;;;;;;;;5055629;28;20123;-86
2021/09/08 10:17:03;;;;;;;9.90;6.40;;;;;;;;;;5057481;28;20040;-87
2021/09/08 10:19:31;;;;;;;6.50;5.90;;;;;;;;;;5057810;28;20029;-86
2021/09/08 10:22:08;;;;;;;7.60;6.35;;;;;;;;;;5056480;28;20040;-86
2021/09/08 10:24:33;;;;;;;6.50;5.80;;;;;;;;;;5056982;28;20047;-86
2021/09/08 10:27:00;;;;;;;7.65;6.40;;;;;;;;;;5055544;28;20443;-85
2021/09/08 10:29:27;;;;;;;6.80;6.00;;;;;;;;;;5056009;28;20094;-85
2021/09/08 10:31:53;;;;;;;9.30;5.47;;;;;;;;;;5054019;28;20514;-85
2021/09/08 10:34:20;;;;;;;7.30;6.13;;;;;;;;;;5055661;28;20097;-86
2021/09/08 10:36:46;;;;;;;6.88;5.82;;;;;;;;;;5064758;28;20033;-84
2021/09/08 10:39:15;;;;;;;6.63;5.80;;;;;;;;;;5069007;28;20039;-85
2021/09/08 10:41:54;;;;;;;6.95;5.55;;;;;;;;;;5068574;28;20039;-86
2021/09/08 10:44:39;;;;;;;6.95;5.70;;;;;;;;;;5064901;28;20041;-86
2021/09/08 10:47:04;;;;;;;8.05;5.80;;;;;;;;;;5060019;28;20036;-83
2021/09/08 10:49:36;;;;;;;6.32;5.65;;;;;;;;;;5059615;28;20025;-85
2021/09/08 10:52:01;;;;;;;7.38;5.57;;;;;;;;;;5056886;28;20027;-84
2021/09/08 10:54:27;;;;;;;6.43;5.60;;;;;;;;;;5057382;28;20021;-85
2021/09/08 10:56:52;;;;;;;7.65;5.35;;;;;;;;;;5058067;28;20439;-84
2021/09/08 10:59:18;;;;;;;6.30;5.70;;;;;;;;;;5054895;28;20024;-83
2021/09/08 11:01:43;;;;;;;8.05;5.65;;;;;;;;;;5054665;28;20446;-83
2021/09/08 11:04:13;;;;;;;6.90;5.35;;;;;;;;;;5055352;28;20025;-84
2021/09/08 11:06:41;;;;;;;6.57;5.28;;;;;;;;;;5055895;28;20027;-85
2021/09/08 11:09:08;;;;;;;7.70;5.82;;;;;;;;;;5059794;28;20036;-85
2021/09/08 11:11:57;;;;;;;5.88;5.05;;;;;;;;;;5059882;28;20028;-84
2021/09/08 11:14:48;;;;;;;6.20;4.93;;;;;;;;;;5057375;28;20033;-83
2021/09/08 11:17:25;;;;;;;5.78;5.15;;;;;;;;;;5057408;28;20024;-83
2021/09/08 11:19:51;;;;;;;7.00;5.00;;;;;;;;;;5057153;28;20055;-84
2021/09/08 11:22:17;;;;;;;5.35;4.65;;;;;;;;;;5057814;28;20451;-82
2021/09/08 11:24:42;;;;;;;6.28;5.30;;;;;;;;;;5056979;28;20035;-83
2021/09/08 11:27:08;;;;;;;6.20;5.60;;;;;;;;;;5056774;28;20439;-82
2021/09/08 11:29:34;;;;;;;6.70;5.45;;;;;;;;;;5057846;28;20274;-81
2021/09/08 11:31:59;;;;;;;7.70;5.07;;;;;;;;;;5057762;28;20029;-84
2021/09/08 11:34:27;;;;;;;6.97;5.10;;;;;;;;;;5058369;28;20450;-82
2021/09/08 11:36:57;;;;;;;5.00;4.50;;;;;;;;;;5060032;28;20033;-82
2021/09/08 11:39:25;;;;;;;6.35;5.13;;;;;;;;;;5059691;28;20032;-82
2021/09/08 11:41:52;;;;;;;6.50;4.65;;;;;;;;;;5062081;28;20035;-83
2021/09/08 11:44:17;;;;;;;8.38;4.70;;;;;;;;;;5061592;28;20052;-82
2021/09/08 11:46:42;;;;;;;7.05;4.70;;;;;;;;;;5060365;28;20029;-83
2021/09/08 11:49:11;;;;;;;7.32;4.75;;;;;;;;;;5064999;28;20074;-84
2021/09/08 11:51:39;;;;;;;6.32;4.63;;;;;;;;;;5058004;28;20029;-85
2021/09/08 11:54:07;;;;;;;8.60;5.00;;;;;;;;;;5057100;28;20143;-86
2021/09/08 11:56:34;;;;;;;5.90;4.85;;;;;;;;;;5058394;28;20053;-86
2021/09/08 11:59:01;;;;;;;5.63;5.10;;;;;;;;;;5058075;28;20029;-84
2021/09/08 12:01:32;;;;;;;8.07;4.88;;;;;;;;;;5055966;28;20031;-85
2021/09/08 12:04:00;;;;;;;4.82;4.22;;;;;;;;;;5056727;28;20032;-83
2021/09/08 12:06:28;;;;;;;5.53;4.85;;;;;;;;;;5057163;28;20029;-84
2021/09/08 12:09:10;;;;;;;5.32;4.75;;;;;;;;;;5057251;28;20090;-84
2021/09/08 12:11:37;;;;;;;8.30;4.43;;;;;;;;;;5056717;28;20548;-84
2021/09/08 12:14:17;;;;;;;6.45;5.10;;;;;;;;;;5055534;28;20119;-84
2021/09/08 12:16:43;;;;;;;6.53;4.60;;;;;;;;;;5056758;28;20025;-84
2021/09/08 12:19:24;;;;;;;5.28;4.75;;;;;;;;;;5056435;28;20454;-84
2021/09/08 12:21:50;;;;;;;5.28;4.63;;;;;;;;;;5057124;28;20021;-85
2021/09/08 12:24:28;;;;;;;6.47;4.97;;;;;;;;;;5057583;28;20324;-85
2021/09/08 12:26:54;;;;;;;5.43;4.85;;;;;;;;;;5057467;28;20028;-85
2021/09/08 12:29:19;;;;;;;5.72;5.07;;;;;;;;;;5057865;28;20057;-85
2021/09/08 12:31:53;;;;;;;6.03;4.85;;;;;;;;;;5056543;28;20028;-85
2021/09/08 12:34:20;;;;;;;6.87;4.77;;;;;;;;;;5057490;28;20392;-84
2021/09/08 12:36:46;;;;;;;5.18;4.55;;;;;;;;;;5059567;28;20120;-86
2021/09/08 12:39:15;;;;;;;6.28;4.88;;;;;;;;;;5057105;28;20017;-86
2021/09/08 12:41:58;;;;;;;6.68;5.15;;;;;;;;;;5057999;28;20029;-85
2021/09/08 12:44:35;;;;;;;5.43;4.60;;;;;;;;;;5057908;28;20056;-86
2021/09/08 12:47:09;;;;;;;5.53;4.30;;;;;;;;;;5067367;28;20035;-83
2021/09/08 12:49:34;;;;;;;4.68;4.10;;;;;;;;;;5072617;28;20055;-82
2021/09/08 12:52:00;;;;;;;4.88;3.90;;;;;;;;;;5079241;28;20028;-84
2021/09/08 12:54:26;;;;;;;5.05;4.07;;;;;;;;;;5078256;28;20044;-84
2021/09/08 12:56:52;;;;;;;5.22;4.38;;;;;;;;;;5079350;28;20056;-84
2021/09/08 12:59:24;;;;;;;5.38;3.58;;;;;;;;;;5064857;28;20103;-85
2021/09/08 13:01:52;;;;;;;4.90;3.80;;;;;;;;;;5058157;28;20044;-84
2021/09/08 13:04:20;;;;;;;5.43;4.15;;;;;;;;;;5055757;28;20067;-84
2021/09/08 13:06:47;;;;;;;15.35;5.05;;;;;;;;;;5055621;28;20363;-84
2021/09/08 13:09:13;;;;;;;5.05;3.75;;;;;;;;;;5056621;28;20080;-85
2021/09/08 13:11:38;;;;;;;8.27;4.47;;;;;;;;;;5056113;28;20025;-84
2021/09/08 13:14:05;;;;;;;7.53;3.80;;;;;;;;;;5056166;28;20347;-84
2021/09/08 13:16:32;;;;;;;5.22;4.07;;;;;;;;;;5056109;28;20363;-85
2021/09/08 13:18:57;;;;;;;12.05;4.30;;;;;;;;;;5056990;28;20367;-84
2021/09/08 13:21:22;;;;;;;8.85;3.80;;;;;;;;;;5055049;28;20032;-85
2021/09/08 13:23:48;;;;;;;4.60;3.47;;;;;;;;;;5055340;28;20024;-85
2021/09/08 13:26:13;;;;;;;11.63;4.90;;;;;;;;;;5056471;28;20040;-85
2021/09/08 13:28:38;;;;;;;8.88;4.45;;;;;;;;;;5057173;28;20032;-84
2021/09/08 13:31:04;;;;;;;8.00;3.92;;;;;;;;;;5055833;28;20040;-84
2021/09/08 13:33:29;;;;;;;6.85;3.85;;;;;;;;;;5055517;28;20107;-82
2021/09/08 13:35:54;;;;;;;5.97;3.83;;;;;;;;;;5054829;28;20032;-84
2021/09/08 13:38:20;;;;;;;5.32;3.55;;;;;;;;;;5055980;28;20033;-84
2021/09/08 13:40:45;;;;;;;4.78;3.75;;;;;;;;;;5055520;28;20104;-84
2021/09/08 13:43:10;;;;;;;6.03;4.03;;;;;;;;;;5054100;28;20106;-84
2021/09/08 13:45:36;;;;;;;5.75;3.33;;;;;;;;;;5054219;28;20040;-85
2021/09/08 13:48:01;;;;;;;;;;;;;;;;;;5054856;28;20402;-84
2021/09/08 13:50:26;;;;;;;;;;;;;;;;;;5055655;28;19909;-84
2021/09/08 13:52:52;;;;;;;15.47;13.87;;;;;;;;;;5054612;28;20041;-84
2021/09/08 13:55:17;;;;;;;;;;;;;;;;;;5055192;28;20031;-82
2021/09/08 13:57:42;;;;;;;5.60;3.23;;;;;;;;;;5054954;28;19913;-81
2021/09/08 14:00:09;;;;;;;6.85;3.75;;;;;;;;;;5056102;28;20435;-83
2021/09/08 14:02:34;;;;;;;5.50;3.78;;;;;;;;;;5055144;28;20036;-84
2021/09/08 14:04:59;;;;;;;4.43;3.42;;;;;;;;;;5055722;28;20021;-84
2021/09/08 14:07:25;;;;;;;;;;;;;;;;;;5054225;28;20033;-83
2021/09/08 14:09:50;;;;;;;5.77;3.83;;;;;;;;;;5054754;28;20265;-84
2021/09/08 14:12:18;;;;;;;;;;;;;;;;;;5054214;28;20086;-84
2021/09/08 14:14:44;;;;;;;5.32;3.50;;;;;;;;;;5053749;28;19909;-84
2021/09/08 14:17:09;;;;;;;;;;;;;;;;;;5054984;28;20029;-84
2021/09/08 14:19:35;;;;;;;;;;;;;;;;;;5055292;28;19955;-83
2021/09/08 14:22:01;;;;;;;6.15;4.07;;;;;;;;;;5054872;28;19920;-84
2021/09/08 14:24:26;;;;;;;8.35;4.05;;;;;;;;;;5054995;28;20017;-83
2021/09/08 14:26:51;;;;;;;;;;;;;;;;;;5057943;28;20035;-88
2021/09/08 14:29:17;;;;;;;17.23;9.43;;;;;;;;;;5060556;28;20350;-86
2021/09/08 14:31:42;;;;;;;;;;;;;;;;;;5061734;28;20025;-83
2021/09/08 14:34:07;;;;;;;7.63;3.93;;;;;;;;;;5058192;28;19995;-86
2021/09/08 14:36:33;;;;;;;;;;;;;;;;;;5062453;28;20268;-85
2021/09/08 14:38:58;;;;;;;;;;;;;;;;;;5061550;28;19908;-84
2021/09/08 14:41:24;;;;;;;7.20;4.05;;;;;;;;;;5058618;28;19909;-85